La Crosse, WI

3:29 PM CDT on August 27, 2016 (GMT -0500)
Arbor Hills | | Change Station

Elev 1234 ft 43.80 °N, 91.19 °W | Updated 53 seconds ago

Overcast
Overcast
68.4 °F
Feels Like 68.4 °F
N
0.0
Wind Variable Wind from NNW
Gusts 0.0 mph

Today
High -- | Low -- °F
--% Chance of Precip.
Yesterday
High -- | Low -- °F
Precip. -- in
Pressure 30.00 in
Visibility 10.0 miles
Clouds Overcast 1500 ft
Dew Point 66 °F
Humidity 93%
Rainfall 0.13 in
Snow Depth Not available.
6:23 AM 7:48 PM
Waning Crescent, 22% visible
SPECI KLSE 272014Z 14006KT 10SM OVC015 22/18 A3000 RMK AO2 T02170183
Pressure 30.00 in
Visibility 10.0 miles
Clouds Overcast 1500 ft
Dew Point 66 °F
Humidity 93%
Rainfall 0.13 in
Snow Depth Not available.
6:23 AM 7:48 PM
Waning Crescent, 22% visible
SPECI KLSE 272014Z 14006KT 10SM OVC015 22/18 A3000 RMK AO2 T02170183

10-Day Weather Forecast

Almanac

Astronomy

Aug. 27, 2016 Rise Set
Actual Time
Civil Twilight
Nautical Twilight
Astronomical Twilight
Moon
Length of Visible Light
Length of Day
Tomorrow will be .
, % of the Moon is Illuminated

Today's Extremes

State Highs State Lows

Community

WunderPhotos

Upload Photos

1,935,434 photos uploaded!

WunderBlog® & News

Nearby

Air Quality

  Air Quality AQ Index Pollutant
Not available.

Snow Depth

Station Depth Elevation

Earthquake Activity

City Distance Mag. Time & Date
Minimum magnitude displayed is 2.5.

Coastal Water Temperatures

Place Temperature

Stations

Nearby Weather Stations

Station Location Temp. Windchill Dew Point Humidity Wind Precip. Elev Updated Type
                   

Watches & Warnings

There are currently no watches in effect.